Goloson International Airport
MHLC : rendu visible

Aérodrome :











RETROUVEZ-NOUS SUR...

 
LOGIN :

S'inscrire | Disclaimer

   EN    FR    IT 

 









Légende :    VFR   VFR Marginal   IFR   IFR Intensif   IFR Très Intensif
Visi : 
Plafond : 
>= 8 km
>= 3000ft
5 à 8 km
1000 à 3000 ft
1500m à 5 km
500 à 1000 ft
800 à 1500m
200 à 500 ft
< 800m
< 200 ft
Symboles :   Orages  Brouillard  Fortes neiges  Fortes précipitations  Vent > 20 kt






- Altitude de l'aérodrome : 49 ft
- Code IATA : LCE


MHLC - Goloson International

DERNIER METAR :
  • 261600Z VRB02KT 9999 SCT022TCVU BKN070 26/23 Q1015 A2997 NOSIG

METARs EXPIRÉS :
  • 261500Z 00000KT 9999 4000SE VCSH SCT022 BKN070 25/23 Q1016 A3000 NOSIG
  • 261400Z VRB02KT 9999 SCT023 BKN070 24/23 Q1015 A2997 NOSIG

TAF TAF MHLC
Valide du 26 à 12h jusqu'au 27 à 12h UTC


261115Z 2612/2712 17003KT 9999 SCT022 SCT070 TX28/2619Z TN21/2712Z
BECMG 2615/2617 03008KT SCT025TCU SCT080
PROB30 2620/2622 6000 VCSH SCT022TCU BKN070
BECMG 2623/2701 11004KT 9999 NSW SCT024 SCT080
FIR MHTG / Amérique du Nord



MET'MAP, la Météo Aéronautique d'un coup d'oeil ! - Copyright ORBIFLY Décembre 2007 - Disclaimer

ORBIFLY MET'MAP TEAM :

Programmation & Développement : Alexandra Zaïnal
Sur une idée originale de : Baudouin d'Aumeries
Assistance à la programmation : Marc-Olivier Méhu
Soutien technique & logistique : Manuel Goepfert

Contact : metmap@orbifly.com




SOURCES & CREDITS :

   NOAA       Earth
Advisory